sensor_id;sensor_type;location;lat;lon;timestamp;temperature;humidity
74488;DHT22;63019;51.080;13.642;2023-02-20T00:00:58;3.90;99.90
74488;DHT22;63019;51.080;13.642;2023-02-20T00:01:59;3.90;99.90
74488;DHT22;63019;51.080;13.642;2023-02-20T00:03:02;3.90;99.90
74488;DHT22;63019;51.080;13.642;2023-02-20T00:04:04;3.90;99.90
74488;DHT22;63019;51.080;13.642;2023-02-20T00:05:06;3.80;99.90
74488;DHT22;63019;51.080;13.642;2023-02-20T00:06:08;3.80;99.90
74488;DHT22;63019;51.080;13.642;2023-02-20T00:07:10;3.80;99.90
74488;DHT22;63019;51.080;13.642;2023-02-20T00:08:12;3.80;99.90
74488;DHT22;63019;51.080;13.642;2023-02-20T00:09:14;3.80;99.90
74488;DHT22;63019;51.080;13.642;2023-02-20T00:10:17;3.80;99.90
74488;DHT22;63019;51.080;13.642;2023-02-20T00:11:19;3.80;99.90
74488;DHT22;63019;51.080;13.642;2023-02-20T00:12:20;3.80;99.90
74488;DHT22;63019;51.080;13.642;2023-02-20T00:13:22;3.80;99.90
74488;DHT22;63019;51.080;13.642;2023-02-20T00:14:24;3.70;99.90
74488;DHT22;63019;51.080;13.642;2023-02-20T00:15:26;3.70;99.90
74488;DHT22;63019;51.080;13.642;2023-02-20T00:16:28;3.80;99.90
74488;DHT22;63019;51.080;13.642;2023-02-20T00:17:29;3.70;99.90
74488;DHT22;63019;51.080;13.642;2023-02-20T00:18:31;3.70;99.90
74488;DHT22;63019;51.080;13.642;2023-02-20T00:19:33;3.70;99.90
74488;DHT22;63019;51.080;13.642;2023-02-20T00:20:35;3.70;99.90
74488;DHT22;63019;51.080;13.642;2023-02-20T00:21:46;3.80;99.90
74488;DHT22;63019;51.080;13.642;2023-02-20T00:22:48;3.80;99.90
74488;DHT22;63019;51.080;13.642;2023-02-20T00:23:50;3.80;99.90
74488;DHT22;63019;51.080;13.642;2023-02-20T00:24:52;3.80;99.90
74488;DHT22;63019;51.080;13.642;2023-02-20T00:25:54;3.80;99.90
74488;DHT22;63019;51.080;13.642;2023-02-20T00:26:56;3.80;99.90
74488;DHT22;63019;51.080;13.642;2023-02-20T00:27:58;3.80;99.90
74488;DHT22;63019;51.080;13.642;2023-02-20T00:29:00;3.80;99.90
74488;DHT22;63019;51.080;13.642;2023-02-20T00:30:02;3.90;99.90
74488;DHT22;63019;51.080;13.642;2023-02-20T00:31:06;3.90;99.90
74488;DHT22;63019;51.080;13.642;2023-02-20T00:32:08;3.90;99.90
74488;DHT22;63019;51.080;13.642;2023-02-20T00:33:10;3.90;99.90
74488;DHT22;63019;51.080;13.642;2023-02-20T00:34:12;3.90;99.90
74488;DHT22;63019;51.080;13.642;2023-02-20T00:35:14;4.00;99.90
74488;DHT22;63019;51.080;13.642;2023-02-20T00:36:18;4.00;99.90
74488;DHT22;63019;51.080;13.642;2023-02-20T00:37:20;4.10;99.90
74488;DHT22;63019;51.080;13.642;2023-02-20T00:38:21;4.10;99.90
74488;DHT22;63019;51.080;13.642;2023-02-20T00:39:23;4.10;99.90
74488;DHT22;63019;51.080;13.642;2023-02-20T00:40:25;4.10;99.90
74488;DHT22;63019;51.080;13.642;2023-02-20T00:41:27;4.20;99.90
74488;DHT22;63019;51.080;13.642;2023-02-20T00:42:29;4.20;99.90
74488;DHT22;63019;51.080;13.642;2023-02-20T00:43:30;4.20;99.90
74488;DHT22;63019;51.080;13.642;2023-02-20T00:44:36;4.20;99.90
74488;DHT22;63019;51.080;13.642;2023-02-20T00:45:38;4.20;99.90
74488;DHT22;63019;51.080;13.642;2023-02-20T00:46:40;4.20;99.90
74488;DHT22;63019;51.080;13.642;2023-02-20T00:47:42;4.20;99.90
74488;DHT22;63019;51.080;13.642;2023-02-20T00:48:44;4.20;99.90
74488;DHT22;63019;51.080;13.642;2023-02-20T00:49:45;4.20;99.90
74488;DHT22;63019;51.080;13.642;2023-02-20T00:50:47;4.10;99.90
74488;DHT22;63019;51.080;13.642;2023-02-20T00:51:49;4.10;99.90
74488;DHT22;63019;51.080;13.642;2023-02-20T00:52:51;4.10;99.90
74488;DHT22;63019;51.080;13.642;2023-02-20T00:53:53;4.00;99.90
74488;DHT22;63019;51.080;13.642;2023-02-20T00:54:54;4.00;99.90
74488;DHT22;63019;51.080;13.642;2023-02-20T00:55:56;4.10;99.90
74488;DHT22;63019;51.080;13.642;2023-02-20T00:56:58;4.20;99.90
74488;DHT22;63019;51.080;13.642;2023-02-20T00:58:00;4.20;99.90
74488;DHT22;63019;51.080;13.642;2023-02-20T00:59:01;4.30;99.90
74488;DHT22;63019;51.080;13.642;2023-02-20T01:00:08;4.40;99.90
74488;DHT22;63019;51.080;13.642;2023-02-20T01:01:10;4.40;99.90
74488;DHT22;63019;51.080;13.642;2023-02-20T01:02:12;4.50;99.90
74488;DHT22;63019;51.080;13.642;2023-02-20T01:03:14;4.50;99.90
74488;DHT22;63019;51.080;13.642;2023-02-20T01:04:16;4.60;99.90
74488;DHT22;63019;51.080;13.642;2023-02-20T01:05:18;4.60;99.90
74488;DHT22;63019;51.080;13.642;2023-02-20T01:06:20;4.70;99.90
74488;DHT22;63019;51.080;13.642;2023-02-20T01:07:22;4.80;99.90
74488;DHT22;63019;51.080;13.642;2023-02-20T01:08:24;4.80;99.90
74488;DHT22;63019;51.080;13.642;2023-02-20T01:09:25;4.80;99.90
74488;DHT22;63019;51.080;13.642;2023-02-20T01:10:28;4.80;99.90
74488;DHT22;63019;51.080;13.642;2023-02-20T01:11:30;4.80;99.90
74488;DHT22;63019;51.080;13.642;2023-02-20T01:12:32;4.90;99.90
74488;DHT22;63019;51.080;13.642;2023-02-20T01:13:34;4.90;99.90
74488;DHT22;63019;51.080;13.642;2023-02-20T01:14:37;4.90;99.90
74488;DHT22;63019;51.080;13.642;2023-02-20T01:15:39;4.90;99.90
74488;DHT22;63019;51.080;13.642;2023-02-20T01:16:46;4.90;99.90
74488;DHT22;63019;51.080;13.642;2023-02-20T01:17:48;5.00;99.90
74488;DHT22;63019;51.080;13.642;2023-02-20T01:18:50;5.00;99.90
74488;DHT22;63019;51.080;13.642;2023-02-20T01:19:52;5.00;99.90
74488;DHT22;63019;51.080;13.642;2023-02-20T01:20:55;5.00;99.90
74488;DHT22;63019;51.080;13.642;2023-02-20T01:21:57;5.00;99.90
74488;DHT22;63019;51.080;13.642;2023-02-20T01:23:00;5.00;99.90
74488;DHT22;63019;51.080;13.642;2023-02-20T01:24:02;5.00;99.90
74488;DHT22;63019;51.080;13.642;2023-02-20T01:25:04;5.00;99.90
74488;DHT22;63019;51.080;13.642;2023-02-20T01:26:06;5.10;99.90
74488;DHT22;63019;51.080;13.642;2023-02-20T01:27:09;5.10;99.90
74488;DHT22;63019;51.080;13.642;2023-02-20T01:28:11;5.10;99.90
74488;DHT22;63019;51.080;13.642;2023-02-20T01:29:13;5.10;99.90
74488;DHT22;63019;51.080;13.642;2023-02-20T01:30:15;5.10;99.90
74488;DHT22;63019;51.080;13.642;2023-02-20T01:31:17;5.10;99.90
74488;DHT22;63019;51.080;13.642;2023-02-20T01:32:19;5.10;99.90
74488;DHT22;63019;51.080;13.642;2023-02-20T01:33:21;5.10;99.90
74488;DHT22;63019;51.080;13.642;2023-02-20T01:34:23;5.10;99.90
74488;DHT22;63019;51.080;13.642;2023-02-20T01:35:24;5.10;99.90
74488;DHT22;63019;51.080;13.642;2023-02-20T01:36:31;5.10;99.90
74488;DHT22;63019;51.080;13.642;2023-02-20T01:37:34;5.10;99.90
74488;DHT22;63019;51.080;13.642;2023-02-20T01:38:36;5.10;99.90
74488;DHT22;63019;51.080;13.642;2023-02-20T01:39:40;5.10;99.90
74488;DHT22;63019;51.080;13.642;2023-02-20T01:40:46;5.20;99.90
74488;DHT22;63019;51.080;13.642;2023-02-20T01:41:53;5.20;99.90
74488;DHT22;63019;51.080;13.642;2023-02-20T01:42:56;5.20;99.90
74488;DHT22;63019;51.080;13.642;2023-02-20T01:43:58;5.20;99.90
74488;DHT22;63019;51.080;13.642;2023-02-20T01:47:28;5.20;99.90
74488;DHT22;63019;51.080;13.642;2023-02-20T01:48:30;5.20;99.90
74488;DHT22;63019;51.080;13.642;2023-02-20T01:49:49;5.20;99.90
74488;DHT22;63019;51.080;13.642;2023-02-20T01:50:55;5.20;99.90
74488;DHT22;63019;51.080;13.642;2023-02-20T01:52:21;5.30;99.90
74488;DHT22;63019;51.080;13.642;2023-02-20T01:53:26;5.30;99.90
74488;DHT22;63019;51.080;13.642;2023-02-20T01:54:30;5.20;99.90
74488;DHT22;63019;51.080;13.642;2023-02-20T01:56:36;5.30;99.90
74488;DHT22;63019;51.080;13.642;2023-02-20T01:57:43;5.30;99.90
74488;DHT22;63019;51.080;13.642;2023-02-20T01:58:49;5.30;99.90
74488;DHT22;63019;51.080;13.642;2023-02-20T01:59:55;5.20;99.90
74488;DHT22;63019;51.080;13.642;2023-02-20T02:00:58;5.20;99.90
74488;DHT22;63019;51.080;13.642;2023-02-20T02:02:01;5.20;99.90
74488;DHT22;63019;51.080;13.642;2023-02-20T02:03:07;5.20;99.90
74488;DHT22;63019;51.080;13.642;2023-02-20T02:04:11;5.30;99.90
74488;DHT22;63019;51.080;13.642;2023-02-20T02:05:13;5.30;99.90
74488;DHT22;63019;51.080;13.642;2023-02-20T02:06:17;5.30;99.90
74488;DHT22;63019;51.080;13.642;2023-02-20T02:07:18;5.30;99.90
74488;DHT22;63019;51.080;13.642;2023-02-20T02:08:22;5.30;99.90
74488;DHT22;63019;51.080;13.642;2023-02-20T02:11:55;5.30;99.90
74488;DHT22;63019;51.080;13.642;2023-02-20T02:12:56;5.30;99.90
74488;DHT22;63019;51.080;13.642;2023-02-20T02:13:58;5.30;99.90
74488;DHT22;63019;51.080;13.642;2023-02-20T02:15:00;5.30;99.90
74488;DHT22;63019;51.080;13.642;2023-02-20T02:32:19;5.50;99.90
74488;DHT22;63019;51.080;13.642;2023-02-20T02:38:01;5.60;99.90
74488;DHT22;63019;51.080;13.642;2023-02-20T02:40:27;5.60;99.90
74488;DHT22;63019;51.080;13.642;2023-02-20T02:41:55;5.60;99.90
74488;DHT22;63019;51.080;13.642;2023-02-20T02:43:00;5.60;99.90
74488;DHT22;63019;51.080;13.642;2023-02-20T02:47:54;5.70;99.90
74488;DHT22;63019;51.080;13.642;2023-02-20T02:49:20;5.70;99.90
74488;DHT22;63019;51.080;13.642;2023-02-20T02:50:33;5.70;99.90
74488;DHT22;63019;51.080;13.642;2023-02-20T02:51:39;5.70;99.90
74488;DHT22;63019;51.080;13.642;2023-02-20T02:52:48;5.70;99.90
74488;DHT22;63019;51.080;13.642;2023-02-20T02:54:15;5.70;99.90
74488;DHT22;63019;51.080;13.642;2023-02-20T02:55:23;5.70;99.90
74488;DHT22;63019;51.080;13.642;2023-02-20T02:56:35;5.70;99.90
74488;DHT22;63019;51.080;13.642;2023-02-20T02:57:38;5.70;99.90
74488;DHT22;63019;51.080;13.642;2023-02-20T02:58:40;5.70;99.90
74488;DHT22;63019;51.080;13.642;2023-02-20T02:59:42;5.70;99.90
74488;DHT22;63019;51.080;13.642;2023-02-20T03:00:59;5.80;99.90
74488;DHT22;63019;51.080;13.642;2023-02-20T03:02:04;5.80;99.90
74488;DHT22;63019;51.080;13.642;2023-02-20T03:04:17;5.80;99.90
74488;DHT22;63019;51.080;13.642;2023-02-20T03:05:27;5.80;99.90
74488;DHT22;63019;51.080;13.642;2023-02-20T03:06:43;5.80;99.90
74488;DHT22;63019;51.080;13.642;2023-02-20T03:07:49;5.80;99.90
74488;DHT22;63019;51.080;13.642;2023-02-20T03:09:03;5.80;99.90
74488;DHT22;63019;51.080;13.642;2023-02-20T03:10:11;5.80;99.90
74488;DHT22;63019;51.080;13.642;2023-02-20T03:11:21;5.80;99.90
74488;DHT22;63019;51.080;13.642;2023-02-20T03:12:25;5.80;99.90
74488;DHT22;63019;51.080;13.642;2023-02-20T03:13:30;5.90;99.90
74488;DHT22;63019;51.080;13.642;2023-02-20T03:15:03;5.90;99.90
74488;DHT22;63019;51.080;13.642;2023-02-20T03:18:57;5.90;99.90
74488;DHT22;63019;51.080;13.642;2023-02-20T03:20:08;5.90;99.90
74488;DHT22;63019;51.080;13.642;2023-02-20T03:21:17;5.90;99.90
74488;DHT22;63019;51.080;13.642;2023-02-20T03:22:59;5.90;99.90
74488;DHT22;63019;51.080;13.642;2023-02-20T03:23:57;5.90;99.90
74488;DHT22;63019;51.080;13.642;2023-02-20T03:25:27;5.90;99.90
74488;DHT22;63019;51.080;13.642;2023-02-20T03:26:34;5.90;99.90
74488;DHT22;63019;51.080;13.642;2023-02-20T03:27:45;5.90;99.90
74488;DHT22;63019;51.080;13.642;2023-02-20T03:28:57;5.90;99.90
74488;DHT22;63019;51.080;13.642;2023-02-20T03:29:59;5.90;99.90
74488;DHT22;63019;51.080;13.642;2023-02-20T03:31:11;5.90;99.90
74488;DHT22;63019;51.080;13.642;2023-02-20T03:32:16;5.90;99.90
74488;DHT22;63019;51.080;13.642;2023-02-20T03:33:42;5.90;99.90
74488;DHT22;63019;51.080;13.642;2023-02-20T03:35:05;5.90;99.90
74488;DHT22;63019;51.080;13.642;2023-02-20T03:36:36;5.90;99.90
74488;DHT22;63019;51.080;13.642;2023-02-20T03:38:01;5.90;99.90
74488;DHT22;63019;51.080;13.642;2023-02-20T03:39:29;5.90;99.90
74488;DHT22;63019;51.080;13.642;2023-02-20T03:40:51;5.90;99.90
74488;DHT22;63019;51.080;13.642;2023-02-20T03:42:14;5.90;99.90
74488;DHT22;63019;51.080;13.642;2023-02-20T03:43:37;5.90;99.90
74488;DHT22;63019;51.080;13.642;2023-02-20T03:44:40;5.90;99.90
74488;DHT22;63019;51.080;13.642;2023-02-20T03:45:44;5.90;99.90
74488;DHT22;63019;51.080;13.642;2023-02-20T03:46:49;5.90;99.90
74488;DHT22;63019;51.080;13.642;2023-02-20T03:47:55;5.90;99.90
74488;DHT22;63019;51.080;13.642;2023-02-20T03:49:06;5.90;99.90
74488;DHT22;63019;51.080;13.642;2023-02-20T03:50:09;5.90;99.90
74488;DHT22;63019;51.080;13.642;2023-02-20T03:51:32;5.90;99.90
74488;DHT22;63019;51.080;13.642;2023-02-20T03:52:34;5.90;99.90
74488;DHT22;63019;51.080;13.642;2023-02-20T03:53:36;5.90;99.90
74488;DHT22;63019;51.080;13.642;2023-02-20T03:54:40;5.90;99.90
74488;DHT22;63019;51.080;13.642;2023-02-20T03:55:43;5.90;99.90
74488;DHT22;63019;51.080;13.642;2023-02-20T03:56:49;5.90;99.90
74488;DHT22;63019;51.080;13.642;2023-02-20T03:57:59;6.00;99.90
74488;DHT22;63019;51.080;13.642;2023-02-20T03:59:06;6.00;99.90
74488;DHT22;63019;51.080;13.642;2023-02-20T04:00:20;6.00;99.90
74488;DHT22;63019;51.080;13.642;2023-02-20T04:01:24;6.00;99.90
74488;DHT22;63019;51.080;13.642;2023-02-20T04:02:32;5.90;99.90
74488;DHT22;63019;51.080;13.642;2023-02-20T04:03:40;6.00;99.90
74488;DHT22;63019;51.080;13.642;2023-02-20T04:04:49;6.00;99.90
74488;DHT22;63019;51.080;13.642;2023-02-20T04:05:54;6.00;99.90
74488;DHT22;63019;51.080;13.642;2023-02-20T04:06:59;6.00;99.90
74488;DHT22;63019;51.080;13.642;2023-02-20T04:08:09;6.00;99.90
74488;DHT22;63019;51.080;13.642;2023-02-20T04:09:18;6.00;99.90
74488;DHT22;63019;51.080;13.642;2023-02-20T04:10:25;6.00;99.90
74488;DHT22;63019;51.080;13.642;2023-02-20T04:11:37;6.00;99.90
74488;DHT22;63019;51.080;13.642;2023-02-20T04:12:42;6.00;99.90
74488;DHT22;63019;51.080;13.642;2023-02-20T04:13:46;6.00;99.90
74488;DHT22;63019;51.080;13.642;2023-02-20T04:14:50;6.00;99.90
74488;DHT22;63019;51.080;13.642;2023-02-20T04:15:57;6.00;99.90
74488;DHT22;63019;51.080;13.642;2023-02-20T04:17:05;6.00;99.90
74488;DHT22;63019;51.080;13.642;2023-02-20T04:18:11;6.00;99.90
74488;DHT22;63019;51.080;13.642;2023-02-20T04:19:14;6.00;99.90
74488;DHT22;63019;51.080;13.642;2023-02-20T04:20:16;6.00;99.90
74488;DHT22;63019;51.080;13.642;2023-02-20T04:21:38;6.00;99.90
74488;DHT22;63019;51.080;13.642;2023-02-20T04:22:43;6.10;99.90
74488;DHT22;63019;51.080;13.642;2023-02-20T04:23:48;6.10;99.90
74488;DHT22;63019;51.080;13.642;2023-02-20T04:24:57;6.10;99.90
74488;DHT22;63019;51.080;13.642;2023-02-20T04:26:11;6.10;99.90
74488;DHT22;63019;51.080;13.642;2023-02-20T04:27:15;6.10;99.90
74488;DHT22;63019;51.080;13.642;2023-02-20T04:28:18;6.10;99.90
74488;DHT22;63019;51.080;13.642;2023-02-20T04:29:21;6.10;99.90
74488;DHT22;63019;51.080;13.642;2023-02-20T04:30:23;6.10;99.90
74488;DHT22;63019;51.080;13.642;2023-02-20T04:31:25;6.10;99.90
74488;DHT22;63019;51.080;13.642;2023-02-20T04:32:27;6.10;99.90
74488;DHT22;63019;51.080;13.642;2023-02-20T04:33:29;6.10;99.90
74488;DHT22;63019;51.080;13.642;2023-02-20T04:34:31;6.10;99.90
74488;DHT22;63019;51.080;13.642;2023-02-20T04:35:33;6.10;99.90
74488;DHT22;63019;51.080;13.642;2023-02-20T04:36:35;6.10;99.90
74488;DHT22;63019;51.080;13.642;2023-02-20T04:37:36;6.10;99.90
74488;DHT22;63019;51.080;13.642;2023-02-20T04:38:38;6.20;99.90
74488;DHT22;63019;51.080;13.642;2023-02-20T04:39:40;6.20;99.90
74488;DHT22;63019;51.080;13.642;2023-02-20T04:40:42;6.20;99.90
74488;DHT22;63019;51.080;13.642;2023-02-20T04:41:44;6.20;99.90
74488;DHT22;63019;51.080;13.642;2023-02-20T04:42:46;6.20;99.90
74488;DHT22;63019;51.080;13.642;2023-02-20T04:43:47;6.20;99.90
74488;DHT22;63019;51.080;13.642;2023-02-20T04:44:49;6.20;99.90
74488;DHT22;63019;51.080;13.642;2023-02-20T04:45:51;6.20;99.90
74488;DHT22;63019;51.080;13.642;2023-02-20T04:46:53;6.20;99.90
74488;DHT22;63019;51.080;13.642;2023-02-20T04:47:55;6.20;99.90
74488;DHT22;63019;51.080;13.642;2023-02-20T04:48:57;6.30;99.90
74488;DHT22;63019;51.080;13.642;2023-02-20T04:49:58;6.30;99.90
74488;DHT22;63019;51.080;13.642;2023-02-20T04:51:00;6.30;99.90
74488;DHT22;63019;51.080;13.642;2023-02-20T04:52:03;6.30;99.90
74488;DHT22;63019;51.080;13.642;2023-02-20T04:53:05;6.30;99.90
74488;DHT22;63019;51.080;13.642;2023-02-20T04:54:07;6.30;99.90
74488;DHT22;63019;51.080;13.642;2023-02-20T04:55:09;6.30;99.90
74488;DHT22;63019;51.080;13.642;2023-02-20T04:56:11;6.40;99.90
74488;DHT22;63019;51.080;13.642;2023-02-20T04:57:15;6.30;99.90
74488;DHT22;63019;51.080;13.642;2023-02-20T04:58:17;6.40;99.90
74488;DHT22;63019;51.080;13.642;2023-02-20T04:59:19;6.40;99.90
74488;DHT22;63019;51.080;13.642;2023-02-20T05:00:22;6.40;99.90
74488;DHT22;63019;51.080;13.642;2023-02-20T05:01:23;6.40;99.90
74488;DHT22;63019;51.080;13.642;2023-02-20T05:02:25;6.40;99.90
74488;DHT22;63019;51.080;13.642;2023-02-20T05:03:27;6.40;99.90
74488;DHT22;63019;51.080;13.642;2023-02-20T05:04:29;6.40;99.90
74488;DHT22;63019;51.080;13.642;2023-02-20T05:05:30;6.40;99.90
74488;DHT22;63019;51.080;13.642;2023-02-20T05:06:32;6.40;99.90
74488;DHT22;63019;51.080;13.642;2023-02-20T05:07:34;6.40;99.90
74488;DHT22;63019;51.080;13.642;2023-02-20T05:08:36;6.50;99.90
74488;DHT22;63019;51.080;13.642;2023-02-20T05:09:38;6.50;99.90
74488;DHT22;63019;51.080;13.642;2023-02-20T05:10:39;6.50;99.90
74488;DHT22;63019;51.080;13.642;2023-02-20T05:11:41;6.50;99.90
74488;DHT22;63019;51.080;13.642;2023-02-20T05:12:43;6.50;99.90
74488;DHT22;63019;51.080;13.642;2023-02-20T05:13:45;6.50;99.90
74488;DHT22;63019;51.080;13.642;2023-02-20T05:14:47;6.50;99.90
74488;DHT22;63019;51.080;13.642;2023-02-20T05:15:49;6.50;99.90
74488;DHT22;63019;51.080;13.642;2023-02-20T05:16:51;6.50;99.90
74488;DHT22;63019;51.080;13.642;2023-02-20T05:17:52;6.50;99.90
74488;DHT22;63019;51.080;13.642;2023-02-20T05:18:54;6.50;99.90
74488;DHT22;63019;51.080;13.642;2023-02-20T05:19:56;6.50;99.90
74488;DHT22;63019;51.080;13.642;2023-02-20T05:20:58;6.50;99.90
74488;DHT22;63019;51.080;13.642;2023-02-20T05:22:18;6.60;99.90
74488;DHT22;63019;51.080;13.642;2023-02-20T05:23:20;6.60;99.90
74488;DHT22;63019;51.080;13.642;2023-02-20T05:24:22;6.60;99.90
74488;DHT22;63019;51.080;13.642;2023-02-20T05:25:24;6.60;99.90
74488;DHT22;63019;51.080;13.642;2023-02-20T05:26:26;6.60;99.90
74488;DHT22;63019;51.080;13.642;2023-02-20T05:27:28;6.60;99.90
74488;DHT22;63019;51.080;13.642;2023-02-20T05:28:30;6.60;99.90
74488;DHT22;63019;51.080;13.642;2023-02-20T05:29:32;6.60;99.90
74488;DHT22;63019;51.080;13.642;2023-02-20T05:30:34;6.70;99.90
74488;DHT22;63019;51.080;13.642;2023-02-20T05:31:35;6.70;99.90
74488;DHT22;63019;51.080;13.642;2023-02-20T05:32:37;6.70;99.90
74488;DHT22;63019;51.080;13.642;2023-02-20T05:33:39;6.70;99.90
74488;DHT22;63019;51.080;13.642;2023-02-20T05:34:42;6.60;99.90
74488;DHT22;63019;51.080;13.642;2023-02-20T05:35:44;6.70;99.90
74488;DHT22;63019;51.080;13.642;2023-02-20T05:36:46;6.70;99.90
74488;DHT22;63019;51.080;13.642;2023-02-20T05:37:47;6.70;99.90
74488;DHT22;63019;51.080;13.642;2023-02-20T05:38:49;6.70;99.90
74488;DHT22;63019;51.080;13.642;2023-02-20T05:39:51;6.70;99.90
74488;DHT22;63019;51.080;13.642;2023-02-20T05:40:53;6.70;99.90
74488;DHT22;63019;51.080;13.642;2023-02-20T05:41:55;6.70;99.90
74488;DHT22;63019;51.080;13.642;2023-02-20T05:42:57;6.80;99.90
74488;DHT22;63019;51.080;13.642;2023-02-20T05:43:59;6.80;99.90
74488;DHT22;63019;51.080;13.642;2023-02-20T05:45:01;6.70;99.90
74488;DHT22;63019;51.080;13.642;2023-02-20T05:46:04;6.70;99.90
74488;DHT22;63019;51.080;13.642;2023-02-20T05:47:06;6.80;99.90
74488;DHT22;63019;51.080;13.642;2023-02-20T05:48:11;6.80;99.90
74488;DHT22;63019;51.080;13.642;2023-02-20T05:49:12;6.80;99.90
74488;DHT22;63019;51.080;13.642;2023-02-20T05:50:15;6.80;99.90
74488;DHT22;63019;51.080;13.642;2023-02-20T05:51:21;6.80;99.90
74488;DHT22;63019;51.080;13.642;2023-02-20T05:52:23;6.80;99.90
74488;DHT22;63019;51.080;13.642;2023-02-20T05:53:29;6.70;99.90
74488;DHT22;63019;51.080;13.642;2023-02-20T05:54:31;6.70;99.90
74488;DHT22;63019;51.080;13.642;2023-02-20T05:55:33;6.80;99.90
74488;DHT22;63019;51.080;13.642;2023-02-20T05:56:35;6.80;99.90
74488;DHT22;63019;51.080;13.642;2023-02-20T05:57:41;6.70;99.90
74488;DHT22;63019;51.080;13.642;2023-02-20T05:58:43;6.70;99.90
74488;DHT22;63019;51.080;13.642;2023-02-20T05:59:45;6.80;99.90
74488;DHT22;63019;51.080;13.642;2023-02-20T06:00:47;6.80;99.90
74488;DHT22;63019;51.080;13.642;2023-02-20T06:01:54;6.80;99.90
74488;DHT22;63019;51.080;13.642;2023-02-20T06:02:56;6.80;99.90
74488;DHT22;63019;51.080;13.642;2023-02-20T06:03:58;6.80;99.90
74488;DHT22;63019;51.080;13.642;2023-02-20T06:05:02;6.70;99.90
74488;DHT22;63019;51.080;13.642;2023-02-20T06:06:06;6.80;99.90
74488;DHT22;63019;51.080;13.642;2023-02-20T06:07:08;6.80;99.90
74488;DHT22;63019;51.080;13.642;2023-02-20T06:08:12;6.80;99.90
74488;DHT22;63019;51.080;13.642;2023-02-20T06:09:14;6.80;99.90
74488;DHT22;63019;51.080;13.642;2023-02-20T06:10:18;6.80;99.90
74488;DHT22;63019;51.080;13.642;2023-02-20T06:11:20;6.80;99.90
74488;DHT22;63019;51.080;13.642;2023-02-20T06:12:22;6.80;99.90
74488;DHT22;63019;51.080;13.642;2023-02-20T06:13:23;6.80;99.90
74488;DHT22;63019;51.080;13.642;2023-02-20T06:14:26;6.80;99.90
74488;DHT22;63019;51.080;13.642;2023-02-20T06:15:28;6.90;99.90
74488;DHT22;63019;51.080;13.642;2023-02-20T06:16:30;6.80;99.90
74488;DHT22;63019;51.080;13.642;2023-02-20T06:17:33;6.90;99.90
74488;DHT22;63019;51.080;13.642;2023-02-20T06:18:39;6.80;99.90
74488;DHT22;63019;51.080;13.642;2023-02-20T06:19:41;6.90;99.90
74488;DHT22;63019;51.080;13.642;2023-02-20T06:20:43;6.80;99.90
74488;DHT22;63019;51.080;13.642;2023-02-20T06:21:45;6.90;99.90
74488;DHT22;63019;51.080;13.642;2023-02-20T06:22:47;6.90;99.90
74488;DHT22;63019;51.080;13.642;2023-02-20T06:23:51;6.90;99.90
74488;DHT22;63019;51.080;13.642;2023-02-20T06:24:53;6.90;99.90
74488;DHT22;63019;51.080;13.642;2023-02-20T06:25:55;6.90;99.90
74488;DHT22;63019;51.080;13.642;2023-02-20T06:26:57;6.90;99.90
74488;DHT22;63019;51.080;13.642;2023-02-20T06:27:59;6.90;99.90
74488;DHT22;63019;51.080;13.642;2023-02-20T06:29:01;6.90;99.90
74488;DHT22;63019;51.080;13.642;2023-02-20T06:30:03;6.90;99.90
74488;DHT22;63019;51.080;13.642;2023-02-20T06:31:05;6.90;99.90
74488;DHT22;63019;51.080;13.642;2023-02-20T06:32:08;6.90;99.90
74488;DHT22;63019;51.080;13.642;2023-02-20T06:33:10;6.90;99.90
74488;DHT22;63019;51.080;13.642;2023-02-20T06:34:12;6.90;99.90
74488;DHT22;63019;51.080;13.642;2023-02-20T06:35:14;6.90;99.90
74488;DHT22;63019;51.080;13.642;2023-02-20T06:36:22;6.90;99.90
74488;DHT22;63019;51.080;13.642;2023-02-20T06:37:24;6.90;99.90
74488;DHT22;63019;51.080;13.642;2023-02-20T06:38:27;6.90;99.90
74488;DHT22;63019;51.080;13.642;2023-02-20T06:39:29;6.90;99.90
74488;DHT22;63019;51.080;13.642;2023-02-20T06:40:31;7.00;99.90
74488;DHT22;63019;51.080;13.642;2023-02-20T06:41:33;7.00;99.90
74488;DHT22;63019;51.080;13.642;2023-02-20T06:42:35;7.00;99.90
74488;DHT22;63019;51.080;13.642;2023-02-20T06:43:37;7.00;99.90
74488;DHT22;63019;51.080;13.642;2023-02-20T06:44:39;7.00;99.90
74488;DHT22;63019;51.080;13.642;2023-02-20T06:45:40;7.00;99.90
74488;DHT22;63019;51.080;13.642;2023-02-20T06:46:42;7.00;99.90
74488;DHT22;63019;51.080;13.642;2023-02-20T06:47:44;7.00;99.90
74488;DHT22;63019;51.080;13.642;2023-02-20T06:48:48;7.00;99.90
74488;DHT22;63019;51.080;13.642;2023-02-20T06:49:50;7.00;99.90
74488;DHT22;63019;51.080;13.642;2023-02-20T06:50:52;7.00;99.90
74488;DHT22;63019;51.080;13.642;2023-02-20T06:51:56;7.00;99.90
74488;DHT22;63019;51.080;13.642;2023-02-20T06:52:58;7.00;99.90
74488;DHT22;63019;51.080;13.642;2023-02-20T06:54:01;7.00;99.90
74488;DHT22;63019;51.080;13.642;2023-02-20T06:55:03;7.00;99.90
74488;DHT22;63019;51.080;13.642;2023-02-20T06:56:07;7.00;99.90
74488;DHT22;63019;51.080;13.642;2023-02-20T06:57:09;7.00;99.90
74488;DHT22;63019;51.080;13.642;2023-02-20T06:58:11;7.00;99.90
74488;DHT22;63019;51.080;13.642;2023-02-20T06:59:13;7.00;99.90
74488;DHT22;63019;51.080;13.642;2023-02-20T07:00:16;7.00;99.90
74488;DHT22;63019;51.080;13.642;2023-02-20T07:01:20;7.00;99.90
74488;DHT22;63019;51.080;13.642;2023-02-20T07:02:22;7.00;99.90
74488;DHT22;63019;51.080;13.642;2023-02-20T07:03:24;7.00;99.90
74488;DHT22;63019;51.080;13.642;2023-02-20T07:04:26;7.00;99.90
74488;DHT22;63019;51.080;13.642;2023-02-20T07:05:28;7.00;99.90
74488;DHT22;63019;51.080;13.642;2023-02-20T07:06:30;7.00;99.90
74488;DHT22;63019;51.080;13.642;2023-02-20T07:07:32;7.00;99.90
74488;DHT22;63019;51.080;13.642;2023-02-20T07:08:34;7.00;99.90
74488;DHT22;63019;51.080;13.642;2023-02-20T07:09:35;7.00;99.90
74488;DHT22;63019;51.080;13.642;2023-02-20T07:10:37;7.00;99.90
74488;DHT22;63019;51.080;13.642;2023-02-20T07:11:39;7.10;99.90
74488;DHT22;63019;51.080;13.642;2023-02-20T07:12:41;7.10;99.90
74488;DHT22;63019;51.080;13.642;2023-02-20T07:13:42;7.10;99.90
74488;DHT22;63019;51.080;13.642;2023-02-20T07:14:44;7.10;99.90
74488;DHT22;63019;51.080;13.642;2023-02-20T07:15:46;7.10;99.90
74488;DHT22;63019;51.080;13.642;2023-02-20T07:16:48;7.10;99.90
74488;DHT22;63019;51.080;13.642;2023-02-20T07:17:50;7.10;99.90
74488;DHT22;63019;51.080;13.642;2023-02-20T07:18:52;7.10;99.90
74488;DHT22;63019;51.080;13.642;2023-02-20T07:19:53;7.10;99.90
74488;DHT22;63019;51.080;13.642;2023-02-20T07:20:55;7.10;99.90
74488;DHT22;63019;51.080;13.642;2023-02-20T07:21:57;7.20;99.90
74488;DHT22;63019;51.080;13.642;2023-02-20T07:22:59;7.20;99.90